createdAt,value
2019-04-11T00:02:27.054Z,22.60
2019-04-11T00:04:57.466Z,18.65
2019-04-11T00:07:28.746Z,20.97
2019-04-11T00:10:00.881Z,20.08
2019-04-11T00:12:31.246Z,20.70
2019-04-11T00:15:02.450Z,20.68
2019-04-11T00:17:34.115Z,18.48
2019-04-11T00:20:05.023Z,20.65
2019-04-11T00:22:35.415Z,23.15
2019-04-11T00:25:07.446Z,20.32
2019-04-11T00:27:37.748Z,21.85
2019-04-11T00:30:10.054Z,19.45
2019-04-11T00:32:41.344Z,18.07
2019-04-11T00:35:11.899Z,19.00
2019-04-11T00:37:43.425Z,23.47
2019-04-11T00:40:13.900Z,21.40
2019-04-11T00:42:45.253Z,19.73
2019-04-11T00:45:15.843Z,20.40
2019-04-11T00:47:47.016Z,21.45
2019-04-11T00:50:17.635Z,23.10
2019-04-11T00:52:48.130Z,22.55
2019-04-11T00:55:19.562Z,19.10
2019-04-11T00:57:50.362Z,18.52
2019-04-11T01:00:22.643Z,25.27
2019-04-11T01:02:53.715Z,23.73
2019-04-11T01:05:25.618Z,20.82
2019-04-11T01:07:56.732Z,24.18
2019-04-11T01:10:28.256Z,18.45
2019-04-11T01:12:58.689Z,22.32
2019-04-11T01:15:29.270Z,20.48
2019-04-11T01:18:00.063Z,19.92
2019-04-11T01:20:31.309Z,18.10
2019-04-11T01:23:02.763Z,20.30
2019-04-11T01:25:33.303Z,20.17
2019-04-11T01:28:04.652Z,19.12
2019-04-11T01:30:54.070Z,20.92
2019-04-11T01:33:24.415Z,20.62
2019-04-11T01:35:55.387Z,19.07
2019-04-11T01:38:25.962Z,18.48
2019-04-11T01:40:56.299Z,22.25
2019-04-11T01:43:26.620Z,21.60
2019-04-11T01:45:57.937Z,20.15
2019-04-11T01:48:39.607Z,21.35
2019-04-11T01:51:10.078Z,19.32
2019-04-11T01:53:40.997Z,21.52
2019-04-11T01:56:12.794Z,22.15
2019-04-11T01:58:43.397Z,22.30
2019-04-11T02:01:23.485Z,21.77
2019-04-11T02:03:59.878Z,19.07
2019-04-11T02:06:30.510Z,20.68
2019-04-11T02:09:01.916Z,21.82
2019-04-11T02:11:34.214Z,19.27
2019-04-11T02:14:10.919Z,19.23
2019-04-11T02:16:36.914Z,24.82
2019-04-11T02:19:07.952Z,22.30
2019-04-11T02:21:39.964Z,20.77
2019-04-11T02:24:25.832Z,22.35
2019-04-11T02:27:15.196Z,20.25
2019-04-11T02:29:46.697Z,18.12
2019-04-11T02:32:18.497Z,19.67
2019-04-11T02:34:50.666Z,21.75
2019-04-11T02:37:21.931Z,20.60
2019-04-11T02:39:53.737Z,19.15
2019-04-11T02:42:25.586Z,20.68
2019-04-11T02:45:14.836Z,21.27
2019-04-11T02:47:32.409Z,22.48
2019-04-11T02:50:01.030Z,19.00
2019-04-11T02:52:31.379Z,18.80
2019-04-11T02:55:03.418Z,19.85
2019-04-11T02:57:34.398Z,22.02
2019-04-11T03:00:06.501Z,18.80
2019-04-11T03:02:39.499Z,19.30
2019-04-11T03:05:12.012Z,20.23
2019-04-11T03:07:42.844Z,22.15
2019-04-11T03:10:14.173Z,20.02
2019-04-11T03:12:47.453Z,23.15
2019-04-11T03:15:33.441Z,18.45
2019-04-11T03:17:52.558Z,20.37
2019-04-11T03:20:28.982Z,21.05
2019-04-11T03:22:58.209Z,19.37
2019-04-11T03:25:26.036Z,19.80
2019-04-11T03:27:57.046Z,20.27
2019-04-11T03:30:44.698Z,19.87
2019-04-11T03:33:54.518Z,17.67
2019-04-11T03:36:21.992Z,19.15
2019-04-11T03:38:31.058Z,20.32
2019-04-11T03:40:57.012Z,19.02
2019-04-11T03:43:24.350Z,19.77
2019-04-11T03:45:58.672Z,19.98
2019-04-11T03:48:29.018Z,19.50
2019-04-11T03:50:46.860Z,18.10
2019-04-11T03:53:25.307Z,19.92
2019-04-11T03:55:56.246Z,20.02
2019-04-11T03:58:26.923Z,20.15
2019-04-11T04:01:03.250Z,19.85
2019-04-11T04:03:30.981Z,22.62
2019-04-11T04:06:01.961Z,18.92
2019-04-11T04:08:34.254Z,19.73
2019-04-11T04:11:09.163Z,18.32
2019-04-11T04:13:45.401Z,20.08
2019-04-11T04:16:34.181Z,20.72
2019-04-11T04:19:10.792Z,19.17
2019-04-11T04:21:55.344Z,22.52
2019-04-11T04:24:34.724Z,19.05
2019-04-11T04:27:04.655Z,21.23
2019-04-11T04:29:37.188Z,19.17
2019-04-11T04:32:08.410Z,23.47
2019-04-11T04:34:41.892Z,17.77
2019-04-11T04:37:14.095Z,18.75
2019-04-11T04:39:45.666Z,17.95
2019-04-11T04:42:24.118Z,20.80
2019-04-11T04:44:48.916Z,18.32
2019-04-11T04:47:25.032Z,18.92
2019-04-11T04:49:54.486Z,20.23
2019-04-11T04:52:25.379Z,18.62
2019-04-11T04:54:59.208Z,19.15
2019-04-11T04:57:29.796Z,21.52
2019-04-11T05:00:02.644Z,19.70
2019-04-11T05:02:35.461Z,20.62
2019-04-11T05:05:06.334Z,20.72
2019-04-11T05:07:40.203Z,19.67
2019-04-11T05:10:09.233Z,21.15
2019-04-11T05:12:39.507Z,22.90
2019-04-11T05:15:12.265Z,19.75
2019-04-11T05:17:44.441Z,18.73
2019-04-11T05:20:16.333Z,21.90
2019-04-11T05:22:47.313Z,20.48
2019-04-11T05:25:18.238Z,18.70
2019-04-11T05:27:49.674Z,19.60
2019-04-11T05:30:20.377Z,18.73
2019-04-11T05:32:50.934Z,19.35
2019-04-11T05:35:22.833Z,17.57
2019-04-11T05:37:53.610Z,17.98
2019-04-11T05:40:24.242Z,18.62
2019-04-11T05:42:55.741Z,17.07
2019-04-11T05:45:26.675Z,16.05
2019-04-11T05:47:58.290Z,16.77
2019-04-11T05:50:31.931Z,22.05
2019-04-11T05:53:05.483Z,20.10
2019-04-11T05:55:43.273Z,19.27
2019-04-11T05:58:14.341Z,17.85
2019-04-11T06:00:53.280Z,18.77
2019-04-11T06:03:24.495Z,17.98
2019-04-11T06:06:22.728Z,16.55
2019-04-11T06:08:58.566Z,17.45
2019-04-11T06:11:48.233Z,17.23
2019-04-11T06:14:27.088Z,17.30
2019-04-11T06:17:01.046Z,17.25
2019-04-11T06:19:50.029Z,18.70
2019-04-11T06:22:21.342Z,17.48
2019-04-11T06:25:11.261Z,15.45
2019-04-11T06:27:55.804Z,19.80
2019-04-11T06:30:54.821Z,17.45
2019-04-11T06:33:36.575Z,15.63
2019-04-11T06:36:28.099Z,18.57
2019-04-11T06:39:18.938Z,14.28
2019-04-11T06:42:15.016Z,17.45
2019-04-11T06:45:04.467Z,16.93
2019-04-11T06:47:53.494Z,19.90
2019-04-11T06:50:37.933Z,16.10
2019-04-11T06:53:13.090Z,13.68
2019-04-11T06:56:01.747Z,16.00
2019-04-11T06:58:39.470Z,16.00
2019-04-11T07:01:14.062Z,15.32
2019-04-11T07:03:49.129Z,15.43
2019-04-11T07:06:23.814Z,14.55
2019-04-11T07:09:07.186Z,15.35
2019-04-11T07:11:59.700Z,15.63
2019-04-11T07:14:45.580Z,14.07
2019-04-11T07:17:33.971Z,15.65
2019-04-11T07:20:33.563Z,16.20
2019-04-11T07:23:24.251Z,14.47
2019-04-11T07:26:16.709Z,14.95
2019-04-11T07:29:06.561Z,18.20
2019-04-11T07:32:16.197Z,16.87
2019-04-11T07:35:05.309Z,15.10
2019-04-11T07:37:44.819Z,14.18
2019-04-11T07:40:39.223Z,16.27
2019-04-11T07:43:13.933Z,17.37
2019-04-11T07:46:02.723Z,13.28
2019-04-11T07:48:44.624Z,12.80
2019-04-11T07:51:40.730Z,16.73
2019-04-11T07:54:18.653Z,14.23
2019-04-11T07:56:55.117Z,13.35
2019-04-11T07:59:57.761Z,14.73
2019-04-11T08:02:47.727Z,18.20
2019-04-11T08:05:45.224Z,15.58
2019-04-11T08:08:44.076Z,14.23
2019-04-11T08:11:19.774Z,14.45
2019-04-11T08:14:21.366Z,13.58
2019-04-11T08:17:25.390Z,12.58
2019-04-11T08:20:03.183Z,12.13
2019-04-11T08:22:36.942Z,12.07
2019-04-11T08:25:39.904Z,12.35
2019-04-11T08:28:13.913Z,14.70
2019-04-11T08:31:02.361Z,14.50
2019-04-11T08:33:35.116Z,13.55
2019-04-11T08:36:26.108Z,12.80
2019-04-11T08:38:56.718Z,15.53
2019-04-11T08:41:45.981Z,10.93
2019-04-11T08:44:23.895Z,10.15
2019-04-11T08:46:58.804Z,12.98
2019-04-11T08:49:39.745Z,10.63
2019-04-11T08:52:22.428Z,11.33
2019-04-11T08:55:04.434Z,12.37
2019-04-11T08:57:38.137Z,12.85
2019-04-11T09:00:31.271Z,12.23
2019-04-11T09:03:15.611Z,11.78
2019-04-11T09:06:08.424Z,9.85
2019-04-11T09:08:59.711Z,13.32
2019-04-11T09:11:36.535Z,11.10
2019-04-11T09:14:28.471Z,14.00
2019-04-11T09:17:06.860Z,10.43
2019-04-11T09:19:57.013Z,9.38
2019-04-11T09:22:42.812Z,12.68
2019-04-11T09:25:31.860Z,8.65
2019-04-11T09:28:21.781Z,9.63
2019-04-11T09:31:14.028Z,11.05
2019-04-11T09:34:01.673Z,9.95
2019-04-11T09:36:49.774Z,12.43
2019-04-11T09:39:43.417Z,12.10
2019-04-11T09:42:39.106Z,11.48
2019-04-11T09:45:27.733Z,8.23
2019-04-11T09:48:18.215Z,9.25
2019-04-11T09:51:13.626Z,12.03
2019-04-11T09:53:45.734Z,8.50
2019-04-11T09:56:45.098Z,10.32
2019-04-11T09:59:20.929Z,7.92
2019-04-11T10:02:23.579Z,11.22
2019-04-11T10:04:55.123Z,8.40
2019-04-11T10:07:54.481Z,8.05
2019-04-11T10:10:50.878Z,12.78
2019-04-11T10:13:40.980Z,9.48
2019-04-11T10:16:35.933Z,8.18
2019-04-11T10:19:13.827Z,10.68
2019-04-11T10:21:50.022Z,9.55
2019-04-11T10:24:54.867Z,10.40
2019-04-11T10:27:40.928Z,9.68
2019-04-11T10:30:29.424Z,8.13
2019-04-11T10:33:03.059Z,10.45
2019-04-11T10:35:56.694Z,8.25
2019-04-11T10:38:27.285Z,8.05
2019-04-11T10:41:06.303Z,8.48
2019-04-11T10:43:36.901Z,9.28
2019-04-11T10:46:27.166Z,12.68
2019-04-11T10:49:15.154Z,9.43
2019-04-11T10:52:00.229Z,10.65
2019-04-11T10:54:34.015Z,9.60
2019-04-11T10:57:40.284Z,12.03
2019-04-11T11:00:18.908Z,10.68
2019-04-11T11:03:14.949Z,10.00
2019-04-11T11:05:49.351Z,9.05
2019-04-11T11:08:31.947Z,8.98
2019-04-11T11:11:08.150Z,8.03
2019-04-11T11:13:50.107Z,9.68
2019-04-11T11:16:27.833Z,8.63
2019-04-11T11:19:43.860Z,8.70
2019-04-11T11:22:13.246Z,8.48
2019-04-11T11:25:02.925Z,7.92
2019-04-11T11:27:34.766Z,8.90
2019-04-11T11:30:27.460Z,8.08
2019-04-11T11:33:00.122Z,8.55
2019-04-11T11:35:59.690Z,11.68
2019-04-11T11:38:28.223Z,7.42
2019-04-11T11:41:16.363Z,9.78
2019-04-11T11:43:48.271Z,8.50
2019-04-11T11:46:50.596Z,9.23
2019-04-11T11:49:41.805Z,8.65
2019-04-11T11:52:33.378Z,11.83
2019-04-11T11:55:04.055Z,9.53
2019-04-11T11:57:47.310Z,11.68
2019-04-11T12:00:23.713Z,9.03
2019-04-11T12:03:28.373Z,6.28
2019-04-11T12:06:05.144Z,15.10
2019-04-11T12:08:56.077Z,8.15
2019-04-11T12:11:28.357Z,7.50
2019-04-11T12:14:29.664Z,8.63
2019-04-11T12:17:18.619Z,7.37
2019-04-11T12:20:01.635Z,7.83
2019-04-11T12:22:28.407Z,8.15
2019-04-11T12:25:09.088Z,8.78
2019-04-11T12:27:58.915Z,10.43
2019-04-11T12:30:44.163Z,7.28
2019-04-11T12:33:45.965Z,7.45
2019-04-11T12:36:21.008Z,8.28
2019-04-11T12:39:14.194Z,8.25
2019-04-11T12:41:56.442Z,7.03
2019-04-11T12:44:52.100Z,12.53
2019-04-11T12:47:47.294Z,7.17
2019-04-11T12:50:39.749Z,9.33
2019-04-11T12:53:15.144Z,8.33
2019-04-11T12:56:03.366Z,7.15
2019-04-11T12:58:49.277Z,8.18
2019-04-11T13:01:47.927Z,8.65
2019-04-11T13:04:37.545Z,11.30
2019-04-11T13:07:34.741Z,13.13
2019-04-11T13:10:25.363Z,10.85
2019-04-11T13:13:20.365Z,11.57
2019-04-11T13:16:16.646Z,9.80
2019-04-11T13:19:06.189Z,9.50
2019-04-11T13:22:00.906Z,12.25
2019-04-11T13:24:49.620Z,14.40
2019-04-11T13:27:25.261Z,13.30
2019-04-11T13:30:18.112Z,11.08
2019-04-11T13:32:53.491Z,11.20
2019-04-11T13:35:46.276Z,10.55
2019-04-11T13:38:23.496Z,12.90
2019-04-11T13:41:16.691Z,12.50
2019-04-11T13:44:06.571Z,9.08
2019-04-11T13:46:56.287Z,13.22
2019-04-11T13:49:59.131Z,10.58
2019-04-11T13:52:52.805Z,10.10
2019-04-11T13:55:26.084Z,12.90
2019-04-11T13:58:14.187Z,12.88
2019-04-11T14:00:54.638Z,13.90
2019-04-11T14:03:44.789Z,18.27
2019-04-11T14:06:48.748Z,12.25
2019-04-11T14:09:40.970Z,14.80
2019-04-11T14:12:14.659Z,10.95
2019-04-11T14:14:56.445Z,10.88
2019-04-11T14:17:44.386Z,11.85
2019-04-11T14:20:30.432Z,10.45
2019-04-11T14:23:24.475Z,10.32
2019-04-11T14:26:11.962Z,12.07
2019-04-11T14:28:45.155Z,10.95
2019-04-11T14:31:41.970Z,12.18
2019-04-11T14:34:30.314Z,11.10
2019-04-11T14:37:23.000Z,11.80
2019-04-11T14:40:06.521Z,14.55
2019-04-11T14:43:02.012Z,12.95
2019-04-11T14:46:06.896Z,12.88
2019-04-11T14:49:13.967Z,10.80
2019-04-11T14:52:21.157Z,9.50
2019-04-11T14:54:56.877Z,12.78
2019-04-11T14:57:56.872Z,12.45
2019-04-11T15:00:33.761Z,10.48
2019-04-11T15:03:25.799Z,10.90
2019-04-11T15:06:31.576Z,13.30
2019-04-11T15:09:26.783Z,13.60
2019-04-11T15:12:03.230Z,12.95
2019-04-11T15:14:54.078Z,9.75
2019-04-11T15:17:30.375Z,12.00
2019-04-11T15:20:12.828Z,10.63
2019-04-11T15:23:02.157Z,9.98
2019-04-11T15:26:10.137Z,9.58
2019-04-11T15:29:05.638Z,10.95
2019-04-11T15:32:01.739Z,11.03
2019-04-11T15:34:49.027Z,11.55
2019-04-11T15:37:48.290Z,9.85
2019-04-11T15:40:38.699Z,10.78
2019-04-11T15:43:32.893Z,12.70
2019-04-11T15:46:21.468Z,13.03
2019-04-11T15:49:19.969Z,8.68
2019-04-11T15:51:55.420Z,11.00
2019-04-11T15:54:44.807Z,9.68
2019-04-11T15:57:43.639Z,7.95
2019-04-11T16:00:31.410Z,9.80
2019-04-11T16:03:04.488Z,15.30
2019-04-11T16:06:04.719Z,10.30
2019-04-11T16:08:43.269Z,10.23
2019-04-11T16:11:29.842Z,10.05
2019-04-11T16:14:06.338Z,10.00
2019-04-11T16:16:58.974Z,9.85
2019-04-11T16:19:47.641Z,8.85
2019-04-11T16:22:55.934Z,10.60
2019-04-11T16:25:28.936Z,10.28
2019-04-11T16:28:30.045Z,10.18
2019-04-11T16:31:00.990Z,10.08
2019-04-11T16:33:46.170Z,10.88
2019-04-11T16:36:38.811Z,10.63
2019-04-11T16:39:27.567Z,10.35
2019-04-11T16:42:09.515Z,18.62
2019-04-11T16:45:14.294Z,9.40
2019-04-11T16:48:16.256Z,15.53
2019-04-11T16:50:46.748Z,9.68
2019-04-11T16:53:17.216Z,8.65
2019-04-11T16:55:47.591Z,21.10
2019-04-11T16:58:19.607Z,9.48
2019-04-11T17:00:52.570Z,8.78
2019-04-11T17:03:24.860Z,8.88
2019-04-11T17:06:02.227Z,8.80
2019-04-11T17:08:40.047Z,9.18
2019-04-11T17:11:18.918Z,10.13
2019-04-11T17:13:49.728Z,10.20
2019-04-11T17:16:21.124Z,11.22
2019-04-11T17:18:51.517Z,8.53
2019-04-11T17:21:23.340Z,8.93
2019-04-11T17:23:54.092Z,11.18
2019-04-11T17:26:25.143Z,9.30
2019-04-11T17:28:55.484Z,9.95
2019-04-11T17:31:26.648Z,7.67
2019-04-11T17:34:01.413Z,9.55
2019-04-11T17:36:30.741Z,10.00
2019-04-11T17:39:02.165Z,10.18
2019-04-11T17:41:34.121Z,8.33
2019-04-11T17:44:04.751Z,8.03
2019-04-11T17:46:35.432Z,8.65
2019-04-11T17:49:05.846Z,11.18
2019-04-11T17:51:36.249Z,14.00
2019-04-11T17:54:06.535Z,9.75
2019-04-11T17:56:37.043Z,7.33
2019-04-11T17:59:07.633Z,10.18
2019-04-11T18:01:38.876Z,11.35
2019-04-11T18:04:13.303Z,8.15
2019-04-11T18:06:41.428Z,11.22
2019-04-11T18:09:12.933Z,9.63
2019-04-11T18:11:43.506Z,10.90
2019-04-11T18:14:14.016Z,12.95
2019-04-11T18:16:44.613Z,9.28
2019-04-11T18:19:15.187Z,9.98
2019-04-11T18:21:45.922Z,8.40
2019-04-11T18:24:19.707Z,10.58
2019-04-11T18:26:51.741Z,14.05
2019-04-11T18:29:22.739Z,9.63
2019-04-11T18:31:55.297Z,9.60
2019-04-11T18:34:25.975Z,9.73
2019-04-11T18:36:56.597Z,14.78
2019-04-11T18:39:26.889Z,9.78
2019-04-11T18:41:57.696Z,8.00
2019-04-11T18:44:31.084Z,9.48
2019-04-11T18:47:01.517Z,9.93
2019-04-11T18:49:31.969Z,9.68
2019-04-11T18:52:02.410Z,6.60
2019-04-11T18:54:33.204Z,8.63
2019-04-11T18:57:03.485Z,8.70
2019-04-11T18:59:34.518Z,8.63
2019-04-11T19:02:09.665Z,15.53
2019-04-11T19:04:42.019Z,8.70
2019-04-11T19:07:13.280Z,7.95
2019-04-11T19:09:44.487Z,9.10
2019-04-11T19:12:15.891Z,8.80
2019-04-11T19:14:47.967Z,8.65
2019-04-11T19:17:18.460Z,10.43
2019-04-11T19:19:49.401Z,9.98
2019-04-11T19:22:36.341Z,10.80
2019-04-11T19:24:52.427Z,8.23
2019-04-11T19:27:23.385Z,9.15
2019-04-11T19:29:55.824Z,7.28
2019-04-11T19:32:25.935Z,9.68
2019-04-11T19:34:56.257Z,8.15
2019-04-11T19:37:26.603Z,9.75
2019-04-11T19:39:56.975Z,11.10
2019-04-11T19:42:27.548Z,10.00
2019-04-11T19:44:57.979Z,11.78
2019-04-11T19:47:28.439Z,7.72
2019-04-11T19:49:59.978Z,8.50
2019-04-11T19:52:32.627Z,11.60
2019-04-11T19:55:21.812Z,11.90
2019-04-11T19:57:52.315Z,8.68
2019-04-11T20:00:22.759Z,12.60
2019-04-11T20:02:54.189Z,9.68
2019-04-11T20:05:25.215Z,10.20
2019-04-11T20:07:56.036Z,12.20
2019-04-11T20:10:30.437Z,9.80
2019-04-11T20:13:01.982Z,10.20
2019-04-11T20:15:37.159Z,10.30
2019-04-11T20:18:07.387Z,8.83
2019-04-11T20:20:37.942Z,9.20
2019-04-11T20:23:10.889Z,8.08
2019-04-11T20:25:40.884Z,9.93
2019-04-11T20:28:11.575Z,10.18
2019-04-11T20:30:41.792Z,8.50
2019-04-11T20:33:12.165Z,10.30
2019-04-11T20:35:45.088Z,8.28
2019-04-11T20:38:18.161Z,8.23
2019-04-11T20:40:52.108Z,8.53
2019-04-11T20:43:24.488Z,8.13
2019-04-11T20:45:53.422Z,9.25
2019-04-11T20:48:24.179Z,9.00
2019-04-11T20:50:54.676Z,9.78
2019-04-11T20:53:25.158Z,9.98
2019-04-11T20:55:55.569Z,9.75
2019-04-11T20:58:27.502Z,9.85
2019-04-11T21:00:58.335Z,10.43
2019-04-11T21:03:30.141Z,11.53
2019-04-11T21:06:01.732Z,10.68
2019-04-11T21:08:33.944Z,7.05
2019-04-11T21:11:05.481Z,8.85
2019-04-11T21:13:38.122Z,8.28
2019-04-11T21:16:07.934Z,8.88
2019-04-11T21:18:38.325Z,11.65
2019-04-11T21:21:08.632Z,11.30
2019-04-11T21:23:39.129Z,12.10
2019-04-11T21:26:09.538Z,8.13
2019-04-11T21:28:39.918Z,11.18
2019-04-11T21:31:10.222Z,9.65
2019-04-11T21:33:40.649Z,9.78
2019-04-11T21:36:10.952Z,10.23
2019-04-11T21:38:41.362Z,8.75
2019-04-11T21:41:11.628Z,8.10
2019-04-11T21:43:42.034Z,7.78
2019-04-11T21:46:12.428Z,8.25
2019-04-11T21:48:44.137Z,7.65
2019-04-11T21:51:14.490Z,9.03
2019-04-11T21:53:45.456Z,9.93
2019-04-11T21:56:18.431Z,7.90
2019-04-11T21:58:50.217Z,7.78
2019-04-11T22:01:21.922Z,10.43
2019-04-11T22:03:56.996Z,8.13
2019-04-11T22:06:28.028Z,7.95
2019-04-11T22:08:58.718Z,9.65
2019-04-11T22:11:29.194Z,9.05
2019-04-11T22:14:00.606Z,9.00
2019-04-11T22:16:30.992Z,8.83
2019-04-11T22:19:01.410Z,7.53
2019-04-11T22:21:31.695Z,9.43
2019-04-11T22:24:02.092Z,7.53
2019-04-11T22:26:32.468Z,6.67
2019-04-11T22:29:03.029Z,8.53
2019-04-11T22:31:33.479Z,6.70
2019-04-11T22:34:21.528Z,11.50
2019-04-11T22:36:52.994Z,8.83
2019-04-11T22:39:23.315Z,8.43
2019-04-11T22:41:53.617Z,7.15
2019-04-11T22:44:26.203Z,8.00
2019-04-11T22:46:56.547Z,8.43
2019-04-11T22:49:29.994Z,8.63
2019-04-11T22:52:00.371Z,6.95
2019-04-11T22:54:30.981Z,11.75
2019-04-11T22:57:01.387Z,9.55
2019-04-11T22:59:31.834Z,7.00
2019-04-11T23:02:24.811Z,8.55
2019-04-11T23:04:55.470Z,7.85
2019-04-11T23:07:25.796Z,8.83
2019-04-11T23:09:56.154Z,8.63
2019-04-11T23:12:26.565Z,9.03
2019-04-11T23:14:56.928Z,8.33
2019-04-11T23:17:27.312Z,8.05
2019-04-11T23:19:58.976Z,7.42
2019-04-11T23:22:29.292Z,7.92
2019-04-11T23:25:00.954Z,8.03
2019-04-11T23:27:31.338Z,8.65
2019-04-11T23:30:01.659Z,9.50
2019-04-11T23:32:32.221Z,9.28
2019-04-11T23:35:02.822Z,11.15
2019-04-11T23:37:51.056Z,10.30
2019-04-11T23:40:22.224Z,9.25
2019-04-11T23:42:52.633Z,7.83
2019-04-11T23:45:25.446Z,8.50
2019-04-11T23:47:55.739Z,7.95
2019-04-11T23:50:26.223Z,10.32
2019-04-11T23:52:57.868Z,10.05
2019-04-11T23:55:30.808Z,9.45
2019-04-11T23:58:01.609Z,8.85
